createdAt,value
2022-09-30T00:01:11.438Z,99049.16
2022-09-30T00:03:38.464Z,99050.84
2022-09-30T00:06:09.833Z,99046.84
2022-09-30T00:08:38.214Z,99058.94
2022-09-30T00:11:07.895Z,99054.22
2022-09-30T00:13:37.786Z,99060.44
2022-09-30T00:16:06.148Z,99065.28
2022-09-30T00:18:33.914Z,99062.78
2022-09-30T00:21:02.578Z,99065.63
2022-09-30T00:23:31.262Z,99066.66
2022-09-30T00:26:01.560Z,99062.44
2022-09-30T00:28:30.211Z,99056.25
2022-09-30T00:31:05.607Z,99059.09
2022-09-30T00:33:34.780Z,99058.25
2022-09-30T00:36:03.635Z,99056.91
2022-09-30T00:38:30.147Z,99065.66
2022-09-30T00:40:56.789Z,99063.31
2022-09-30T00:43:42.290Z,99079.91
2022-09-30T00:46:33.647Z,99078.22
2022-09-30T00:49:04.767Z,99089.47
2022-09-30T00:51:34.566Z,99081.25
2022-09-30T00:54:03.762Z,99086.78
2022-09-30T00:56:34.317Z,99088.44
2022-09-30T00:59:24.204Z,99088.44
2022-09-30T01:01:50.818Z,99091.63
2022-09-30T01:04:22.723Z,99092.31
2022-09-30T01:06:50.274Z,99091.47
2022-09-30T01:09:18.898Z,99093.47
2022-09-30T01:11:46.688Z,99087.44
2022-09-30T01:14:17.733Z,99090.09
2022-09-30T01:16:57.120Z,99095.16
2022-09-30T01:19:41.203Z,99082.38
2022-09-30T01:22:20.172Z,99083.75
2022-09-30T01:25:44.185Z,99091.63
2022-09-30T01:28:58.307Z,99092.47
2022-09-30T01:31:49.684Z,99085.75
2022-09-30T01:34:44.036Z,99085.75
2022-09-30T01:37:17.223Z,99082.91
2022-09-30T01:39:50.463Z,99082.75
2022-09-30T01:42:26.108Z,99099.50
2022-09-30T01:45:05.485Z,99089.78
2022-09-30T01:47:43.915Z,99092.78
2022-09-30T01:50:30.384Z,99097.00
2022-09-30T01:53:19.491Z,99100.84
2022-09-30T01:55:51.222Z,99102.03
2022-09-30T01:58:36.670Z,99103.22
2022-09-30T02:01:07.326Z,99118.63
2022-09-30T02:03:38.065Z,99112.44
2022-09-30T02:06:18.787Z,99116.97
2022-09-30T02:08:52.029Z,99120.00
2022-09-30T02:11:26.082Z,99120.31
2022-09-30T02:14:34.366Z,99117.63
2022-09-30T02:17:06.097Z,99119.63
2022-09-30T02:19:39.234Z,99125.50
2022-09-30T02:22:25.041Z,99129.38
2022-09-30T02:24:55.640Z,99130.03
2022-09-30T02:27:27.210Z,99135.72
2022-09-30T02:29:57.488Z,99133.03
2022-09-30T02:32:38.258Z,99139.41
2022-09-30T02:35:17.208Z,99137.03
2022-09-30T02:37:50.754Z,99134.72
2022-09-30T02:40:24.358Z,99133.72
2022-09-30T02:42:51.153Z,99128.16
2022-09-30T02:45:21.411Z,99134.72
2022-09-30T02:48:18.834Z,99130.69
2022-09-30T02:50:57.486Z,99130.19
2022-09-30T02:53:29.802Z,99128.69
2022-09-30T02:56:08.082Z,99132.38
2022-09-30T02:58:39.542Z,99135.03
2022-09-30T03:01:08.338Z,99139.41
2022-09-30T03:03:59.504Z,99143.94
2022-09-30T03:06:26.576Z,99146.78
2022-09-30T03:08:53.489Z,99142.41
2022-09-30T03:11:22.624Z,99133.38
2022-09-30T03:13:57.691Z,99135.69
2022-09-30T03:16:43.602Z,99137.69
2022-09-30T03:19:25.797Z,99136.03
2022-09-30T03:22:11.696Z,99138.34
2022-09-30T03:25:24.147Z,99145.75
2022-09-30T03:28:22.022Z,99156.16
2022-09-30T03:31:04.143Z,99163.84
2022-09-30T03:33:52.542Z,99166.53
2022-09-30T03:36:40.951Z,99174.72
2022-09-30T03:39:25.570Z,99170.88
2022-09-30T03:41:58.052Z,99171.53
2022-09-30T03:45:07.786Z,99174.72
2022-09-30T03:47:40.840Z,99168.53
2022-09-30T03:50:08.949Z,99171.38
2022-09-30T03:52:38.297Z,99170.69
2022-09-30T03:55:06.377Z,99175.88
2022-09-30T03:57:32.902Z,99173.88
2022-09-30T03:59:59.972Z,99173.72
2022-09-30T04:02:27.269Z,99169.84
2022-09-30T04:04:54.162Z,99168.00
2022-09-30T04:07:20.692Z,99180.41
2022-09-30T04:09:47.187Z,99179.56
2022-09-30T04:12:14.192Z,99180.56
2022-09-30T04:14:40.682Z,99177.56
2022-09-30T04:17:07.250Z,99183.94
2022-09-30T04:19:38.377Z,99180.41
2022-09-30T04:22:05.034Z,99177.53
2022-09-30T04:24:31.504Z,99181.84
2022-09-30T04:26:58.196Z,99185.88
2022-09-30T04:29:25.150Z,99186.50
2022-09-30T04:31:51.963Z,99185.13
2022-09-30T04:34:18.762Z,99196.50
2022-09-30T04:36:45.208Z,99201.66
2022-09-30T04:39:12.126Z,99206.34
2022-09-30T04:41:38.910Z,99200.38
2022-09-30T04:44:06.347Z,99209.53
2022-09-30T04:46:36.954Z,99216.41
2022-09-30T04:49:09.114Z,99214.38
2022-09-30T04:51:36.259Z,99216.84
2022-09-30T04:54:06.113Z,99217.78
2022-09-30T04:56:33.251Z,99228.25
2022-09-30T04:58:59.761Z,99215.50
2022-09-30T05:01:26.336Z,99218.00
2022-09-30T05:03:54.203Z,99218.47
2022-09-30T05:06:21.029Z,99215.75
2022-09-30T05:08:47.460Z,99211.53
2022-09-30T05:11:17.853Z,99217.34
2022-09-30T05:13:44.676Z,99214.72
2022-09-30T05:16:11.910Z,99220.75
2022-09-30T05:18:41.032Z,99224.97
2022-09-30T05:21:07.562Z,99223.97
2022-09-30T05:23:34.295Z,99234.69
2022-09-30T05:26:01.420Z,99243.44
2022-09-30T05:28:31.212Z,99244.28
2022-09-30T05:31:00.211Z,99250.13
2022-09-30T05:33:29.393Z,99252.25
2022-09-30T05:35:59.348Z,99248.75
2022-09-30T05:38:25.922Z,99251.41
2022-09-30T05:40:52.757Z,99257.84
2022-09-30T05:43:19.638Z,99254.53
2022-09-30T05:45:56.508Z,99249.44
2022-09-30T05:48:23.963Z,99259.41
2022-09-30T05:50:54.823Z,99265.19
2022-09-30T05:53:21.449Z,99270.50
2022-09-30T05:55:48.678Z,99266.25
2022-09-30T05:58:15.616Z,99269.97
2022-09-30T06:00:43.231Z,99271.75
2022-09-30T06:03:09.775Z,99261.28
2022-09-30T06:05:36.447Z,99269.81
2022-09-30T06:08:03.639Z,99265.53
2022-09-30T06:10:30.324Z,99279.34
2022-09-30T06:12:59.142Z,99273.09
2022-09-30T06:15:26.932Z,99277.91
2022-09-30T06:17:54.671Z,99272.91
2022-09-30T06:20:21.567Z,99274.53
2022-09-30T06:22:48.304Z,99280.28
2022-09-30T06:25:17.763Z,99297.50
2022-09-30T06:27:46.570Z,99310.00
2022-09-30T06:30:13.986Z,99320.88
2022-09-30T06:32:40.468Z,99325.78
2022-09-30T06:35:07.321Z,99320.06
2022-09-30T06:37:36.842Z,99333.84
2022-09-30T06:40:04.960Z,99341.59
2022-09-30T06:42:32.212Z,99346.19
2022-09-30T06:45:00.321Z,99343.28
2022-09-30T06:47:27.323Z,99346.31
2022-09-30T06:49:58.693Z,99348.69
2022-09-30T06:52:26.648Z,99352.28
2022-09-30T06:54:56.597Z,99363.25
2022-09-30T06:57:26.758Z,99366.53
2022-09-30T06:59:56.250Z,99370.41
2022-09-30T07:02:23.258Z,99362.88
2022-09-30T07:04:50.246Z,99382.78
2022-09-30T07:07:16.982Z,99391.69
2022-09-30T07:09:43.619Z,99389.50
2022-09-30T07:12:10.292Z,99398.09
2022-09-30T07:14:37.324Z,99389.06
2022-09-30T07:17:04.792Z,99398.56
2022-09-30T07:19:31.917Z,99397.47
2022-09-30T07:22:18.421Z,99388.19
2022-09-30T07:24:46.136Z,99386.91
2022-09-30T07:27:13.797Z,99391.09
2022-09-30T07:30:07.181Z,99397.13
2022-09-30T07:32:28.539Z,99406.09
2022-09-30T07:34:55.453Z,99400.16
2022-09-30T07:37:24.732Z,99410.16
2022-09-30T07:39:51.401Z,99406.81
2022-09-30T07:42:22.946Z,99413.31
2022-09-30T07:44:52.025Z,99405.84
2022-09-30T07:47:20.451Z,99415.00
2022-09-30T07:49:47.233Z,99410.00
2022-09-30T07:52:14.224Z,99408.72
2022-09-30T07:54:45.336Z,99413.94
2022-09-30T07:57:15.652Z,99415.56
2022-09-30T07:59:42.237Z,99418.25
2022-09-30T08:02:16.424Z,99420.22
2022-09-30T08:04:44.522Z,99429.38
2022-09-30T08:07:12.347Z,99436.38
2022-09-30T08:09:38.862Z,99436.09
2022-09-30T08:12:05.668Z,99446.75
2022-09-30T08:14:33.604Z,99443.00
2022-09-30T08:17:00.920Z,99435.03
2022-09-30T08:19:30.140Z,99449.91
2022-09-30T08:21:57.270Z,99449.44
2022-09-30T08:24:24.793Z,99442.06
2022-09-30T08:26:52.303Z,99445.94
2022-09-30T08:29:35.640Z,99453.22
2022-09-30T08:32:06.872Z,99449.13
2022-09-30T08:34:36.007Z,99449.69
2022-09-30T08:37:08.370Z,99457.81
2022-09-30T08:39:35.811Z,99450.72
2022-09-30T08:42:35.574Z,99448.84
2022-09-30T08:45:20.303Z,99451.38
2022-09-30T08:47:53.561Z,99448.06
2022-09-30T08:50:31.062Z,99453.31
2022-09-30T08:53:00.461Z,99450.00
2022-09-30T08:55:33.779Z,99448.16
2022-09-30T08:58:02.942Z,99452.63
2022-09-30T09:00:29.592Z,99438.03
2022-09-30T09:02:57.928Z,99439.72
2022-09-30T09:05:41.272Z,99453.66
2022-09-30T09:08:21.483Z,99434.88
2022-09-30T09:10:53.790Z,99438.28
2022-09-30T09:13:34.003Z,99442.53
2022-09-30T09:16:17.295Z,99449.50
2022-09-30T09:19:04.113Z,99467.78
2022-09-30T09:21:42.913Z,99459.25
2022-09-30T09:24:21.676Z,99468.06
2022-09-30T09:26:49.907Z,99464.72
2022-09-30T09:29:35.062Z,99461.75
2022-09-30T09:32:03.357Z,99466.06
2022-09-30T09:34:31.685Z,99460.66
2022-09-30T09:37:08.014Z,99457.31
2022-09-30T09:39:43.512Z,99460.50
2022-09-30T09:42:34.774Z,99450.19
2022-09-30T09:45:35.416Z,99454.28
2022-09-30T09:48:01.955Z,99448.03
2022-09-30T09:50:42.018Z,99442.75
2022-09-30T09:53:21.923Z,99454.94
2022-09-30T09:55:50.417Z,99457.47
2022-09-30T09:58:19.904Z,99455.47
2022-09-30T10:00:46.352Z,99458.47
2022-09-30T10:03:23.405Z,99457.09
2022-09-30T10:06:09.134Z,99458.84
2022-09-30T10:08:38.669Z,99447.34
2022-09-30T10:11:18.631Z,99444.88
2022-09-30T10:13:45.798Z,99438.34
2022-09-30T10:16:43.062Z,99441.81
2022-09-30T10:19:23.204Z,99449.47
2022-09-30T10:21:51.869Z,99447.06
2022-09-30T10:24:29.742Z,99443.66
2022-09-30T10:26:56.353Z,99438.63
2022-09-30T10:29:34.578Z,99450.47
2022-09-30T10:32:02.770Z,99451.59
2022-09-30T10:34:41.774Z,99436.56
2022-09-30T10:37:20.125Z,99441.88
2022-09-30T10:39:56.540Z,99447.50
2022-09-30T10:42:26.539Z,99446.50
2022-09-30T10:45:05.170Z,99444.22
2022-09-30T10:47:36.556Z,99455.09
2022-09-30T10:50:10.688Z,99446.19
2022-09-30T10:52:53.387Z,99457.78
2022-09-30T10:55:19.738Z,99454.81
2022-09-30T10:57:48.100Z,99456.28
2022-09-30T11:00:19.731Z,99451.72
2022-09-30T11:02:54.169Z,99443.66
2022-09-30T11:05:39.322Z,99455.06
2022-09-30T11:08:37.395Z,99456.00
2022-09-30T11:11:12.755Z,99460.34
2022-09-30T11:13:59.712Z,99449.72
2022-09-30T11:16:50.743Z,99457.28
2022-09-30T11:19:38.894Z,99447.69
2022-09-30T11:22:38.295Z,99440.66
2022-09-30T11:25:10.884Z,99447.09
2022-09-30T11:27:55.366Z,99444.16
2022-09-30T11:30:35.842Z,99444.88
2022-09-30T11:33:18.462Z,99449.19
2022-09-30T11:36:09.000Z,99447.34
2022-09-30T11:38:41.430Z,99449.03
2022-09-30T11:41:39.376Z,99440.50
2022-09-30T11:44:27.840Z,99434.34
2022-09-30T11:47:32.550Z,99434.03
2022-09-30T11:50:44.632Z,99434.66
2022-09-30T11:53:25.856Z,99438.22
2022-09-30T11:56:13.953Z,99431.63
2022-09-30T11:58:46.065Z,99422.13
2022-09-30T12:01:18.797Z,99424.06
2022-09-30T12:03:55.271Z,99427.03
2022-09-30T12:06:29.328Z,99423.84
2022-09-30T12:09:00.991Z,99427.19
2022-09-30T12:11:36.396Z,99431.81
2022-09-30T12:14:14.626Z,99428.09
2022-09-30T12:16:41.370Z,99429.38
2022-09-30T12:19:14.474Z,99423.31
2022-09-30T12:22:02.173Z,99413.97
2022-09-30T12:24:43.610Z,99408.19
2022-09-30T12:27:24.627Z,99427.22
2022-09-30T12:30:13.790Z,99427.66
2022-09-30T12:33:02.371Z,99425.28
2022-09-30T12:35:36.643Z,99411.09
2022-09-30T12:38:39.718Z,99414.53
2022-09-30T12:41:19.617Z,99422.47
2022-09-30T12:44:07.317Z,99418.91
2022-09-30T12:47:01.324Z,99420.25
2022-09-30T12:49:29.338Z,99419.72
2022-09-30T12:52:04.017Z,99415.38
2022-09-30T12:54:35.215Z,99416.94
2022-09-30T12:57:10.143Z,99414.63
2022-09-30T12:59:39.261Z,99416.19
2022-09-30T13:02:08.858Z,99404.44
2022-09-30T13:04:39.378Z,99410.34
2022-09-30T13:07:13.515Z,99408.03
2022-09-30T13:10:04.477Z,99408.03
2022-09-30T13:12:46.251Z,99399.44
2022-09-30T13:15:40.042Z,99405.63
2022-09-30T13:18:22.383Z,99403.94
2022-09-30T13:21:20.154Z,99406.44
2022-09-30T13:24:07.116Z,99409.00
2022-09-30T13:26:35.555Z,99406.88
2022-09-30T13:29:16.522Z,99424.91
2022-09-30T13:31:45.998Z,99426.59
2022-09-30T13:34:25.363Z,99428.03
2022-09-30T13:36:51.858Z,99425.03
2022-09-30T13:39:44.361Z,99423.56
2022-09-30T13:42:31.884Z,99435.69
2022-09-30T13:45:21.836Z,99428.00
2022-09-30T13:48:10.921Z,99424.41
2022-09-30T13:50:46.918Z,99435.41
2022-09-30T13:53:21.908Z,99437.28
2022-09-30T13:55:50.854Z,99437.66
2022-09-30T13:58:35.826Z,99445.69
2022-09-30T14:01:10.341Z,99443.16
2022-09-30T14:04:01.408Z,99456.97
2022-09-30T14:07:02.045Z,99447.41
2022-09-30T14:10:09.198Z,99452.72
2022-09-30T14:12:45.568Z,99449.88
2022-09-30T14:15:37.474Z,99448.09
2022-09-30T14:18:32.781Z,99452.53
2022-09-30T14:21:40.533Z,99439.13
2022-09-30T14:24:17.523Z,99434.78
2022-09-30T14:26:49.292Z,99448.47
2022-09-30T14:29:49.181Z,99447.09
2022-09-30T14:32:30.423Z,99441.50
2022-09-30T14:34:59.811Z,99447.56
2022-09-30T14:37:32.408Z,99445.75
2022-09-30T14:39:59.162Z,99440.72
2022-09-30T14:42:36.116Z,99442.75
2022-09-30T14:45:07.068Z,99449.25
2022-09-30T14:47:38.750Z,99454.59
2022-09-30T14:50:11.118Z,99453.75
2022-09-30T14:52:49.182Z,99452.47
2022-09-30T14:55:30.764Z,99456.91
2022-09-30T14:58:28.407Z,99458.84
2022-09-30T15:01:06.470Z,99457.88
2022-09-30T15:03:35.979Z,99457.47
2022-09-30T15:06:03.058Z,99455.16
2022-09-30T15:08:30.811Z,99454.34
2022-09-30T15:10:58.622Z,99455.81
2022-09-30T15:13:29.203Z,99449.97
2022-09-30T15:15:58.108Z,99451.41
2022-09-30T15:18:33.817Z,99451.97
2022-09-30T15:21:06.572Z,99454.91
2022-09-30T15:23:36.233Z,99451.97
2022-09-30T15:26:03.290Z,99453.59
2022-09-30T15:28:30.927Z,99456.31
2022-09-30T15:30:58.489Z,99455.53
2022-09-30T15:33:29.309Z,99459.75
2022-09-30T15:36:06.661Z,99455.13
2022-09-30T15:38:35.159Z,99450.22
2022-09-30T15:41:08.712Z,99455.34
2022-09-30T15:43:42.186Z,99460.28
2022-09-30T15:46:27.048Z,99460.25
2022-09-30T15:48:59.432Z,99465.97
2022-09-30T15:51:41.075Z,99461.38
2022-09-30T15:54:32.179Z,99471.41
2022-09-30T15:57:04.428Z,99476.69
2022-09-30T16:00:01.928Z,99470.56
2022-09-30T16:02:29.670Z,99472.25
2022-09-30T16:04:58.108Z,99471.00
2022-09-30T16:07:29.324Z,99472.91
2022-09-30T16:09:57.066Z,99471.25
2022-09-30T16:12:26.636Z,99470.59
2022-09-30T16:14:58.574Z,99470.16
2022-09-30T16:17:27.850Z,99472.25
2022-09-30T16:19:58.023Z,99471.88
2022-09-30T16:22:34.334Z,99476.84
2022-09-30T16:25:14.399Z,99467.25
2022-09-30T16:27:41.220Z,99471.03
2022-09-30T16:30:10.235Z,99465.19
2022-09-30T16:32:40.445Z,99473.13
2022-09-30T16:35:07.618Z,99465.78
2022-09-30T16:37:35.313Z,99471.84
2022-09-30T16:40:23.315Z,99474.75
2022-09-30T16:42:50.912Z,99478.91
2022-09-30T16:45:17.959Z,99484.69
2022-09-30T16:47:44.801Z,99488.38
2022-09-30T16:50:26.139Z,99483.53
2022-09-30T16:52:52.997Z,99486.00
2022-09-30T16:55:19.831Z,99485.91
2022-09-30T16:57:47.539Z,99490.16
2022-09-30T17:00:18.107Z,99492.13
2022-09-30T17:02:48.947Z,99494.72
2022-09-30T17:05:21.425Z,99496.69
2022-09-30T17:07:52.691Z,99499.94
2022-09-30T17:10:47.564Z,99497.94
2022-09-30T17:13:17.178Z,99500.59
2022-09-30T17:15:49.163Z,99500.31
2022-09-30T17:18:17.334Z,99493.94
2022-09-30T17:20:46.102Z,99497.22
2022-09-30T17:23:12.952Z,99504.47
2022-09-30T17:25:41.774Z,99498.78
2022-09-30T17:28:12.169Z,99509.00
2022-09-30T17:30:41.293Z,99516.25
2022-09-30T17:33:10.016Z,99509.03
2022-09-30T17:35:41.240Z,99510.97
2022-09-30T17:38:12.640Z,99513.78
2022-09-30T17:40:59.864Z,99522.84
2022-09-30T17:43:26.462Z,99521.88
2022-09-30T17:45:58.898Z,99526.94
2022-09-30T17:48:25.413Z,99521.59
2022-09-30T17:50:54.994Z,99509.56
2022-09-30T17:53:22.763Z,99504.72
2022-09-30T17:56:02.434Z,99502.69
2022-09-30T17:58:32.081Z,99502.69
2022-09-30T18:00:59.418Z,99516.00
2022-09-30T18:03:28.210Z,99508.75
2022-09-30T18:05:58.826Z,99506.03
2022-09-30T18:08:28.962Z,99511.81
2022-09-30T18:10:59.494Z,99519.72
2022-09-30T18:13:27.170Z,99519.00
2022-09-30T18:15:54.946Z,99510.53
2022-09-30T18:18:22.568Z,99511.63
2022-09-30T18:20:50.156Z,99518.34
2022-09-30T18:23:19.037Z,99516.19
2022-09-30T18:25:49.842Z,99523.50
2022-09-30T18:28:17.197Z,99525.19
2022-09-30T18:30:44.026Z,99521.53
2022-09-30T18:33:11.025Z,99524.97
2022-09-30T18:35:39.209Z,99528.31
2022-09-30T18:38:07.033Z,99519.56
2022-09-30T18:40:34.265Z,99531.09
2022-09-30T18:43:05.392Z,99515.81
2022-09-30T18:45:38.442Z,99526.22
2022-09-30T18:48:05.522Z,99518.88
2022-09-30T18:50:34.678Z,99517.72
2022-09-30T18:53:10.047Z,99519.16
2022-09-30T18:55:38.333Z,99525.81
2022-09-30T18:58:07.273Z,99518.34
2022-09-30T19:00:34.097Z,99514.19
2022-09-30T19:03:01.148Z,99514.25
2022-09-30T19:05:39.242Z,99519.41
2022-09-30T19:08:07.030Z,99523.03
2022-09-30T19:10:34.719Z,99519.59
2022-09-30T19:13:02.592Z,99508.84
2022-09-30T19:15:32.089Z,99512.75
2022-09-30T19:18:15.680Z,99506.22
2022-09-30T19:20:42.514Z,99514.84
2022-09-30T19:23:10.960Z,99507.31
2022-09-30T19:25:41.887Z,99500.09
2022-09-30T19:28:11.257Z,99509.16
2022-09-30T19:30:42.257Z,99498.59
2022-09-30T19:33:09.016Z,99506.69
2022-09-30T19:35:40.737Z,99497.94
2022-09-30T19:38:08.180Z,99501.00
2022-09-30T19:40:35.590Z,99492.91
2022-09-30T19:43:03.783Z,99496.78
2022-09-30T19:45:31.708Z,99495.78
2022-09-30T19:47:59.495Z,99493.44
2022-09-30T19:50:27.292Z,99491.59
2022-09-30T19:52:57.635Z,99487.88
2022-09-30T19:55:27.553Z,99485.19
2022-09-30T19:57:55.825Z,99483.84
2022-09-30T20:00:23.351Z,99477.13
2022-09-30T20:02:51.097Z,99484.38
2022-09-30T20:05:22.091Z,99481.16
2022-09-30T20:07:51.316Z,99480.34
2022-09-30T20:10:18.062Z,99483.34
2022-09-30T20:12:45.214Z,99486.88
2022-09-30T20:15:30.531Z,99482.81
2022-09-30T20:17:57.067Z,99479.97
2022-09-30T20:20:36.614Z,99487.22
2022-09-30T20:23:03.594Z,99487.88
2022-09-30T20:25:31.354Z,99487.16
2022-09-30T20:28:01.065Z,99482.63
2022-09-30T20:30:29.947Z,99484.47
2022-09-30T20:32:58.533Z,99483.75
2022-09-30T20:35:28.199Z,99491.13
2022-09-30T20:37:55.216Z,99490.94
2022-09-30T20:40:22.105Z,99491.78
2022-09-30T20:42:48.804Z,99491.09
2022-09-30T20:45:18.258Z,99497.78
2022-09-30T20:47:47.729Z,99494.09
2022-09-30T20:50:14.317Z,99498.13
2022-09-30T20:52:41.018Z,99502.13
2022-09-30T20:55:08.251Z,99498.75
2022-09-30T20:57:35.716Z,99501.75
2022-09-30T21:00:04.800Z,99504.78
2022-09-30T21:02:31.392Z,99506.78
2022-09-30T21:04:58.239Z,99504.91
2022-09-30T21:07:28.370Z,99509.91
2022-09-30T21:09:55.167Z,99503.84
2022-09-30T21:12:23.196Z,99514.59
2022-09-30T21:14:49.698Z,99506.91
2022-09-30T21:17:16.443Z,99504.53
2022-09-30T21:19:43.474Z,99507.53
2022-09-30T21:22:11.252Z,99509.72
2022-09-30T21:24:38.036Z,99505.00
2022-09-30T21:27:06.100Z,99505.31
2022-09-30T21:29:33.983Z,99505.94
2022-09-30T21:32:01.132Z,99507.94
2022-09-30T21:34:28.742Z,99512.81
2022-09-30T21:36:55.393Z,99513.28
2022-09-30T21:39:23.503Z,99506.53
2022-09-30T21:41:50.392Z,99504.31
2022-09-30T21:44:17.163Z,99496.03
2022-09-30T21:46:48.877Z,99501.41
2022-09-30T21:49:23.885Z,99499.56
2022-09-30T21:51:53.532Z,99495.69
2022-09-30T21:54:23.430Z,99491.47
2022-09-30T21:56:50.962Z,99491.78
2022-09-30T21:59:17.751Z,99488.56
2022-09-30T22:01:46.382Z,99490.41
2022-09-30T22:04:13.323Z,99492.09
2022-09-30T22:06:40.106Z,99490.19
2022-09-30T22:09:08.479Z,99485.50
2022-09-30T22:11:36.654Z,99487.66
2022-09-30T22:14:03.579Z,99486.50
2022-09-30T22:16:37.600Z,99483.47
2022-09-30T22:19:05.837Z,99482.09
2022-09-30T22:21:36.114Z,99485.16
2022-09-30T22:24:08.006Z,99481.56
2022-09-30T22:26:37.244Z,99477.66
2022-09-30T22:29:11.123Z,99477.94
2022-09-30T22:31:38.414Z,99485.50
2022-09-30T22:34:25.429Z,99486.78
2022-09-30T22:37:11.414Z,99483.28
2022-09-30T22:39:41.105Z,99477.81
2022-09-30T22:42:08.039Z,99481.34
2022-09-30T22:44:36.741Z,99488.69
2022-09-30T22:47:04.603Z,99494.44
2022-09-30T22:49:34.925Z,99493.91
2022-09-30T22:52:04.932Z,99492.06
2022-09-30T22:54:31.728Z,99496.50
2022-09-30T22:56:59.479Z,99497.16
2022-09-30T22:59:26.928Z,99497.16
2022-09-30T23:01:54.027Z,99494.06
2022-09-30T23:04:22.226Z,99493.53
2022-09-30T23:06:52.729Z,99503.84
2022-09-30T23:09:21.011Z,99501.50
2022-09-30T23:11:48.568Z,99501.88
2022-09-30T23:14:18.579Z,99505.88
2022-09-30T23:16:46.638Z,99514.97
2022-09-30T23:19:15.143Z,99515.97
2022-09-30T23:21:41.904Z,99515.22
2022-09-30T23:24:09.408Z,99508.31
2022-09-30T23:26:37.319Z,99508.16
2022-09-30T23:29:07.041Z,99511.16
2022-09-30T23:31:36.281Z,99509.59
2022-09-30T23:34:03.953Z,99509.06
2022-09-30T23:36:33.153Z,99509.06
2022-09-30T23:39:18.465Z,99512.44
2022-09-30T23:41:49.187Z,99503.84
2022-09-30T23:44:20.746Z,99504.19
2022-09-30T23:47:07.498Z,99501.94
2022-09-30T23:49:37.703Z,99501.25
2022-09-30T23:52:13.193Z,99508.00
2022-09-30T23:54:43.329Z,99507.31
2022-09-30T23:57:11.884Z,99501.94
2022-09-30T23:59:39.747Z,99506.03
